sensor_id;sensor_type;location;lat;lon;timestamp;P1;durP1;ratioP1;P2;durP2;ratioP2
8435;SDS011;4255;48.730;9.156;2023-06-22T00:02:16;11.87;;;10.43;;
8435;SDS011;4255;48.730;9.156;2023-06-22T00:04:43;11.87;;;10.67;;
8435;SDS011;4255;48.730;9.156;2023-06-22T00:07:08;10.30;;;9.30;;
8435;SDS011;4255;48.730;9.156;2023-06-22T00:09:34;15.40;;;9.67;;
8435;SDS011;4255;48.730;9.156;2023-06-22T00:12:01;13.20;;;10.93;;
8435;SDS011;4255;48.730;9.156;2023-06-22T00:14:27;11.33;;;9.43;;
8435;SDS011;4255;48.730;9.156;2023-06-22T00:16:52;16.77;;;10.63;;
8435;SDS011;4255;48.730;9.156;2023-06-22T00:19:22;12.80;;;10.60;;
8435;SDS011;4255;48.730;9.156;2023-06-22T00:21:50;16.20;;;10.53;;
8435;SDS011;4255;48.730;9.156;2023-06-22T00:24:19;17.00;;;10.40;;
8435;SDS011;4255;48.730;9.156;2023-06-22T00:26:49;12.23;;;10.50;;
8435;SDS011;4255;48.730;9.156;2023-06-22T00:29:15;12.40;;;10.53;;
8435;SDS011;4255;48.730;9.156;2023-06-22T00:31:40;13.23;;;11.37;;
8435;SDS011;4255;48.730;9.156;2023-06-22T00:34:06;13.10;;;11.37;;
8435;SDS011;4255;48.730;9.156;2023-06-22T00:36:33;14.03;;;9.70;;
8435;SDS011;4255;48.730;9.156;2023-06-22T00:38:59;12.03;;;9.63;;
8435;SDS011;4255;48.730;9.156;2023-06-22T00:41:25;11.47;;;10.37;;
8435;SDS011;4255;48.730;9.156;2023-06-22T00:43:53;12.87;;;10.50;;
8435;SDS011;4255;48.730;9.156;2023-06-22T00:46:19;12.80;;;10.77;;
8435;SDS011;4255;48.730;9.156;2023-06-22T00:48:47;14.30;;;12.17;;
8435;SDS011;4255;48.730;9.156;2023-06-22T00:51:12;11.90;;;10.17;;
8435;SDS011;4255;48.730;9.156;2023-06-22T00:53:38;15.13;;;10.67;;
8435;SDS011;4255;48.730;9.156;2023-06-22T00:56:04;13.63;;;9.53;;
8435;SDS011;4255;48.730;9.156;2023-06-22T00:58:31;19.20;;;11.47;;
8435;SDS011;4255;48.730;9.156;2023-06-22T01:00:57;13.83;;;11.57;;
8435;SDS011;4255;48.730;9.156;2023-06-22T01:03:23;11.87;;;10.40;;
8435;SDS011;4255;48.730;9.156;2023-06-22T01:05:48;18.00;;;11.00;;
8435;SDS011;4255;48.730;9.156;2023-06-22T01:16:28;13.63;;;10.37;;
8435;SDS011;4255;48.730;9.156;2023-06-22T01:19:00;11.43;;;10.07;;
8435;SDS011;4255;48.730;9.156;2023-06-22T01:21:34;15.63;;;11.60;;
8435;SDS011;4255;48.730;9.156;2023-06-22T01:29:34;11.37;;;9.87;;
8435;SDS011;4255;48.730;9.156;2023-06-22T01:32:03;17.10;;;10.20;;
8435;SDS011;4255;48.730;9.156;2023-06-22T01:34:30;14.13;;;12.10;;
8435;SDS011;4255;48.730;9.156;2023-06-22T01:36:57;14.93;;;12.13;;
8435;SDS011;4255;48.730;9.156;2023-06-22T01:39:25;18.37;;;12.50;;
8435;SDS011;4255;48.730;9.156;2023-06-22T01:41:51;17.10;;;10.20;;
8435;SDS011;4255;48.730;9.156;2023-06-22T01:44:18;12.30;;;10.10;;
8435;SDS011;4255;48.730;9.156;2023-06-22T01:46:44;18.00;;;12.90;;
8435;SDS011;4255;48.730;9.156;2023-06-22T01:49:10;13.20;;;11.90;;
8435;SDS011;4255;48.730;9.156;2023-06-22T01:51:36;13.20;;;11.73;;
8435;SDS011;4255;48.730;9.156;2023-06-22T01:54:02;12.90;;;10.73;;
8435;SDS011;4255;48.730;9.156;2023-06-22T01:56:28;15.00;;;8.83;;
8435;SDS011;4255;48.730;9.156;2023-06-22T02:01:35;20.30;;;11.43;;
8435;SDS011;4255;48.730;9.156;2023-06-22T02:04:20;17.27;;;11.20;;
8435;SDS011;4255;48.730;9.156;2023-06-22T02:06:50;17.23;;;10.77;;
8435;SDS011;4255;48.730;9.156;2023-06-22T02:09:20;12.97;;;11.67;;
8435;SDS011;4255;48.730;9.156;2023-06-22T02:11:47;12.53;;;11.13;;
8435;SDS011;4255;48.730;9.156;2023-06-22T02:14:16;15.63;;;11.37;;
8435;SDS011;4255;48.730;9.156;2023-06-22T02:16:43;19.33;;;12.00;;
8435;SDS011;4255;48.730;9.156;2023-06-22T02:19:09;15.57;;;11.20;;
8435;SDS011;4255;48.730;9.156;2023-06-22T02:21:34;13.07;;;11.20;;
8435;SDS011;4255;48.730;9.156;2023-06-22T02:24:00;22.60;;;12.77;;
8435;SDS011;4255;48.730;9.156;2023-06-22T02:26:26;16.10;;;12.40;;
8435;SDS011;4255;48.730;9.156;2023-06-22T02:28:52;13.53;;;11.33;;
8435;SDS011;4255;48.730;9.156;2023-06-22T02:31:18;18.50;;;15.13;;
8435;SDS011;4255;48.730;9.156;2023-06-22T02:33:44;21.77;;;14.30;;
8435;SDS011;4255;48.730;9.156;2023-06-22T02:36:10;16.30;;;12.57;;
8435;SDS011;4255;48.730;9.156;2023-06-22T02:38:37;13.37;;;11.83;;
8435;SDS011;4255;48.730;9.156;2023-06-22T02:41:14;16.00;;;13.10;;
8435;SDS011;4255;48.730;9.156;2023-06-22T02:43:44;18.13;;;13.53;;
8435;SDS011;4255;48.730;9.156;2023-06-22T02:46:10;17.67;;;13.33;;
8435;SDS011;4255;48.730;9.156;2023-06-22T02:48:37;16.03;;;14.03;;
8435;SDS011;4255;48.730;9.156;2023-06-22T02:51:03;16.40;;;13.87;;
8435;SDS011;4255;48.730;9.156;2023-06-22T02:53:29;20.70;;;13.80;;
8435;SDS011;4255;48.730;9.156;2023-06-22T02:55:55;21.00;;;13.57;;
8435;SDS011;4255;48.730;9.156;2023-06-22T02:58:21;14.40;;;12.90;;
8435;SDS011;4255;48.730;9.156;2023-06-22T03:00:46;16.77;;;12.10;;
8435;SDS011;4255;48.730;9.156;2023-06-22T03:03:12;14.90;;;12.73;;
8435;SDS011;4255;48.730;9.156;2023-06-22T03:05:37;14.30;;;12.90;;
8435;SDS011;4255;48.730;9.156;2023-06-22T03:08:05;14.70;;;13.17;;
8435;SDS011;4255;48.730;9.156;2023-06-22T03:10:30;15.87;;;12.53;;
8435;SDS011;4255;48.730;9.156;2023-06-22T03:12:56;14.63;;;12.80;;
8435;SDS011;4255;48.730;9.156;2023-06-22T03:15:21;14.60;;;11.87;;
8435;SDS011;4255;48.730;9.156;2023-06-22T03:17:47;15.17;;;13.47;;
8435;SDS011;4255;48.730;9.156;2023-06-22T03:20:13;20.57;;;14.97;;
8435;SDS011;4255;48.730;9.156;2023-06-22T03:22:39;18.13;;;14.00;;
8435;SDS011;4255;48.730;9.156;2023-06-22T03:25:06;23.50;;;14.10;;
8435;SDS011;4255;48.730;9.156;2023-06-22T03:27:39;16.93;;;14.97;;
8435;SDS011;4255;48.730;9.156;2023-06-22T03:30:09;21.80;;;15.10;;
8435;SDS011;4255;48.730;9.156;2023-06-22T03:32:36;15.10;;;13.60;;
8435;SDS011;4255;48.730;9.156;2023-06-22T03:35:02;18.40;;;14.17;;
8435;SDS011;4255;48.730;9.156;2023-06-22T03:37:27;16.53;;;14.77;;
8435;SDS011;4255;48.730;9.156;2023-06-22T03:39:54;16.33;;;14.63;;
8435;SDS011;4255;48.730;9.156;2023-06-22T03:42:20;15.87;;;14.03;;
8435;SDS011;4255;48.730;9.156;2023-06-22T03:44:45;17.87;;;15.93;;
8435;SDS011;4255;48.730;9.156;2023-06-22T03:47:11;17.00;;;14.57;;
8435;SDS011;4255;48.730;9.156;2023-06-22T03:49:37;17.77;;;14.30;;
8435;SDS011;4255;48.730;9.156;2023-06-22T03:52:03;20.90;;;15.97;;
8435;SDS011;4255;48.730;9.156;2023-06-22T03:54:29;19.57;;;14.63;;
8435;SDS011;4255;48.730;9.156;2023-06-22T03:56:56;17.50;;;15.63;;
8435;SDS011;4255;48.730;9.156;2023-06-22T03:59:22;17.37;;;14.57;;
8435;SDS011;4255;48.730;9.156;2023-06-22T04:01:48;17.97;;;13.60;;
8435;SDS011;4255;48.730;9.156;2023-06-22T04:04:14;17.13;;;13.63;;
8435;SDS011;4255;48.730;9.156;2023-06-22T04:06:39;25.60;;;14.27;;
8435;SDS011;4255;48.730;9.156;2023-06-22T04:09:05;18.00;;;13.83;;
8435;SDS011;4255;48.730;9.156;2023-06-22T04:11:31;18.73;;;12.53;;
8435;SDS011;4255;48.730;9.156;2023-06-22T04:13:57;15.30;;;12.27;;
8435;SDS011;4255;48.730;9.156;2023-06-22T04:16:22;15.30;;;12.53;;
8435;SDS011;4255;48.730;9.156;2023-06-22T04:18:48;16.23;;;13.90;;
8435;SDS011;4255;48.730;9.156;2023-06-22T04:21:14;19.70;;;17.10;;
8435;SDS011;4255;48.730;9.156;2023-06-22T04:23:39;17.03;;;12.03;;
8435;SDS011;4255;48.730;9.156;2023-06-22T04:26:05;13.83;;;12.37;;
8435;SDS011;4255;48.730;9.156;2023-06-22T04:28:30;14.83;;;11.87;;
8435;SDS011;4255;48.730;9.156;2023-06-22T04:31:00;15.60;;;11.80;;
8435;SDS011;4255;48.730;9.156;2023-06-22T04:33:29;12.97;;;11.67;;
8435;SDS011;4255;48.730;9.156;2023-06-22T04:35:55;15.27;;;10.70;;
8435;SDS011;4255;48.730;9.156;2023-06-22T04:38:26;13.60;;;10.20;;
8435;SDS011;4255;48.730;9.156;2023-06-22T04:40:52;20.00;;;10.77;;
8435;SDS011;4255;48.730;9.156;2023-06-22T04:43:18;11.80;;;10.47;;
8435;SDS011;4255;48.730;9.156;2023-06-22T04:45:44;12.30;;;10.30;;
8435;SDS011;4255;48.730;9.156;2023-06-22T04:48:09;11.63;;;10.00;;
8435;SDS011;4255;48.730;9.156;2023-06-22T04:50:37;13.47;;;10.10;;
8435;SDS011;4255;48.730;9.156;2023-06-22T04:53:04;11.50;;;10.00;;
8435;SDS011;4255;48.730;9.156;2023-06-22T04:55:31;11.63;;;10.23;;
8435;SDS011;4255;48.730;9.156;2023-06-22T04:57:57;12.63;;;11.33;;
8435;SDS011;4255;48.730;9.156;2023-06-22T05:00:29;17.60;;;10.93;;
8435;SDS011;4255;48.730;9.156;2023-06-22T05:02:56;12.80;;;9.80;;
8435;SDS011;4255;48.730;9.156;2023-06-22T05:05:24;12.37;;;10.60;;
8435;SDS011;4255;48.730;9.156;2023-06-22T05:07:50;14.47;;;10.90;;
8435;SDS011;4255;48.730;9.156;2023-06-22T05:10:18;14.00;;;9.93;;
8435;SDS011;4255;48.730;9.156;2023-06-22T05:12:44;15.33;;;9.60;;
8435;SDS011;4255;48.730;9.156;2023-06-22T05:15:11;15.43;;;10.57;;
8435;SDS011;4255;48.730;9.156;2023-06-22T05:17:37;11.60;;;10.10;;
8435;SDS011;4255;48.730;9.156;2023-06-22T05:20:08;10.53;;;9.53;;
8435;SDS011;4255;48.730;9.156;2023-06-22T05:22:35;11.80;;;9.73;;
8435;SDS011;4255;48.730;9.156;2023-06-22T05:25:00;11.23;;;10.17;;
8435;SDS011;4255;48.730;9.156;2023-06-22T05:27:26;16.30;;;8.90;;
8435;SDS011;4255;48.730;9.156;2023-06-22T05:29:52;14.90;;;9.63;;
8435;SDS011;4255;48.730;9.156;2023-06-22T05:32:17;16.93;;;9.83;;
8435;SDS011;4255;48.730;9.156;2023-06-22T05:34:43;9.83;;;8.83;;
8435;SDS011;4255;48.730;9.156;2023-06-22T05:37:09;19.63;;;9.57;;
8435;SDS011;4255;48.730;9.156;2023-06-22T05:39:35;12.07;;;9.53;;
8435;SDS011;4255;48.730;9.156;2023-06-22T05:42:03;15.50;;;9.00;;
8435;SDS011;4255;48.730;9.156;2023-06-22T05:44:30;27.53;;;9.13;;
8435;SDS011;4255;48.730;9.156;2023-06-22T05:46:55;16.20;;;9.20;;
8435;SDS011;4255;48.730;9.156;2023-06-22T05:49:21;15.73;;;8.83;;
8435;SDS011;4255;48.730;9.156;2023-06-22T05:51:48;19.80;;;9.20;;
8435;SDS011;4255;48.730;9.156;2023-06-22T05:54:13;10.47;;;8.40;;
8435;SDS011;4255;48.730;9.156;2023-06-22T05:56:40;11.77;;;8.53;;
8435;SDS011;4255;48.730;9.156;2023-06-22T05:59:06;10.73;;;8.10;;
8435;SDS011;4255;48.730;9.156;2023-06-22T06:01:32;15.57;;;7.70;;
8435;SDS011;4255;48.730;9.156;2023-06-22T06:04:01;12.37;;;7.90;;
8435;SDS011;4255;48.730;9.156;2023-06-22T06:06:28;12.50;;;7.33;;
8435;SDS011;4255;48.730;9.156;2023-06-22T06:08:54;8.23;;;6.87;;
8435;SDS011;4255;48.730;9.156;2023-06-22T06:11:21;9.60;;;7.13;;
8435;SDS011;4255;48.730;9.156;2023-06-22T06:13:47;10.27;;;8.03;;
8435;SDS011;4255;48.730;9.156;2023-06-22T06:16:12;8.03;;;7.23;;
8435;SDS011;4255;48.730;9.156;2023-06-22T06:18:38;9.97;;;7.23;;
8435;SDS011;4255;48.730;9.156;2023-06-22T06:21:03;12.70;;;7.20;;
8435;SDS011;4255;48.730;9.156;2023-06-22T06:23:29;9.60;;;7.73;;
8435;SDS011;4255;48.730;9.156;2023-06-22T06:25:55;8.40;;;7.33;;
8435;SDS011;4255;48.730;9.156;2023-06-22T06:28:21;8.63;;;7.33;;
8435;SDS011;4255;48.730;9.156;2023-06-22T06:30:47;8.13;;;7.30;;
8435;SDS011;4255;48.730;9.156;2023-06-22T06:33:12;10.13;;;7.73;;
8435;SDS011;4255;48.730;9.156;2023-06-22T06:35:38;13.97;;;7.20;;
8435;SDS011;4255;48.730;9.156;2023-06-22T06:38:04;12.77;;;7.03;;
8435;SDS011;4255;48.730;9.156;2023-06-22T06:40:29;9.10;;;7.43;;
8435;SDS011;4255;48.730;9.156;2023-06-22T06:42:55;9.97;;;7.70;;
8435;SDS011;4255;48.730;9.156;2023-06-22T06:45:21;9.50;;;6.70;;
8435;SDS011;4255;48.730;9.156;2023-06-22T06:47:49;12.53;;;7.10;;
8435;SDS011;4255;48.730;9.156;2023-06-22T06:50:15;9.70;;;7.40;;
8435;SDS011;4255;48.730;9.156;2023-06-22T06:52:42;7.90;;;6.90;;
8435;SDS011;4255;48.730;9.156;2023-06-22T06:55:08;7.90;;;7.10;;
8435;SDS011;4255;48.730;9.156;2023-06-22T06:57:38;7.73;;;6.20;;
8435;SDS011;4255;48.730;9.156;2023-06-22T07:00:05;9.00;;;6.80;;
8435;SDS011;4255;48.730;9.156;2023-06-22T07:02:35;7.67;;;6.33;;
8435;SDS011;4255;48.730;9.156;2023-06-22T07:05:01;8.13;;;7.00;;
8435;SDS011;4255;48.730;9.156;2023-06-22T07:07:29;10.03;;;6.07;;
8435;SDS011;4255;48.730;9.156;2023-06-22T07:09:55;8.57;;;6.40;;
8435;SDS011;4255;48.730;9.156;2023-06-22T07:12:20;9.60;;;5.80;;
8435;SDS011;4255;48.730;9.156;2023-06-22T07:14:46;7.90;;;6.07;;
8435;SDS011;4255;48.730;9.156;2023-06-22T07:17:12;10.90;;;6.60;;
8435;SDS011;4255;48.730;9.156;2023-06-22T07:19:37;12.40;;;7.60;;
8435;SDS011;4255;48.730;9.156;2023-06-22T07:22:03;9.87;;;5.90;;
8435;SDS011;4255;48.730;9.156;2023-06-22T07:24:29;8.47;;;6.93;;
8435;SDS011;4255;48.730;9.156;2023-06-22T07:26:55;7.03;;;5.50;;
8435;SDS011;4255;48.730;9.156;2023-06-22T07:29:24;11.30;;;6.00;;
8435;SDS011;4255;48.730;9.156;2023-06-22T07:31:50;9.70;;;6.07;;
8435;SDS011;4255;48.730;9.156;2023-06-22T07:34:21;8.37;;;6.20;;
8435;SDS011;4255;48.730;9.156;2023-06-22T07:36:47;9.40;;;5.23;;
8435;SDS011;4255;48.730;9.156;2023-06-22T07:39:13;10.10;;;6.20;;
8435;SDS011;4255;48.730;9.156;2023-06-22T07:41:39;11.93;;;6.13;;
8435;SDS011;4255;48.730;9.156;2023-06-22T07:44:08;7.23;;;6.10;;
8435;SDS011;4255;48.730;9.156;2023-06-22T07:46:33;12.63;;;6.23;;
8435;SDS011;4255;48.730;9.156;2023-06-22T07:48:59;8.10;;;5.40;;
8435;SDS011;4255;48.730;9.156;2023-06-22T07:51:26;7.23;;;5.03;;
8435;SDS011;4255;48.730;9.156;2023-06-22T07:53:51;13.00;;;6.00;;
8435;SDS011;4255;48.730;9.156;2023-06-22T07:56:17;9.37;;;5.50;;
8435;SDS011;4255;48.730;9.156;2023-06-22T07:58:45;6.60;;;5.57;;
8435;SDS011;4255;48.730;9.156;2023-06-22T08:01:11;10.47;;;6.60;;
8435;SDS011;4255;48.730;9.156;2023-06-22T08:03:37;10.93;;;6.00;;
8435;SDS011;4255;48.730;9.156;2023-06-22T08:06:04;8.13;;;6.13;;
8435;SDS011;4255;48.730;9.156;2023-06-22T08:08:30;9.00;;;6.00;;
8435;SDS011;4255;48.730;9.156;2023-06-22T08:10:56;10.70;;;5.77;;
8435;SDS011;4255;48.730;9.156;2023-06-22T08:13:22;9.27;;;6.53;;
8435;SDS011;4255;48.730;9.156;2023-06-22T08:15:47;7.57;;;5.67;;
8435;SDS011;4255;48.730;9.156;2023-06-22T08:18:13;10.33;;;6.30;;
8435;SDS011;4255;48.730;9.156;2023-06-22T08:20:39;8.43;;;6.30;;
8435;SDS011;4255;48.730;9.156;2023-06-22T08:23:05;9.63;;;6.70;;
8435;SDS011;4255;48.730;9.156;2023-06-22T08:25:34;12.27;;;7.13;;
8435;SDS011;4255;48.730;9.156;2023-06-22T08:28:00;13.27;;;6.10;;
8435;SDS011;4255;48.730;9.156;2023-06-22T08:30:26;12.10;;;6.87;;
8435;SDS011;4255;48.730;9.156;2023-06-22T08:32:52;8.83;;;6.40;;
8435;SDS011;4255;48.730;9.156;2023-06-22T08:35:19;10.27;;;7.00;;
8435;SDS011;4255;48.730;9.156;2023-06-22T08:37:45;8.53;;;6.90;;
8435;SDS011;4255;48.730;9.156;2023-06-22T08:40:15;11.43;;;6.20;;
8435;SDS011;4255;48.730;9.156;2023-06-22T08:42:41;8.70;;;6.40;;
8435;SDS011;4255;48.730;9.156;2023-06-22T08:45:07;14.30;;;7.00;;
8435;SDS011;4255;48.730;9.156;2023-06-22T08:47:33;11.30;;;6.43;;
8435;SDS011;4255;48.730;9.156;2023-06-22T08:49:58;11.53;;;6.60;;
8435;SDS011;4255;48.730;9.156;2023-06-22T08:52:24;16.53;;;6.67;;
8435;SDS011;4255;48.730;9.156;2023-06-22T08:54:51;16.33;;;7.27;;
8435;SDS011;4255;48.730;9.156;2023-06-22T08:57:16;8.27;;;5.90;;
8435;SDS011;4255;48.730;9.156;2023-06-22T08:59:42;7.10;;;6.10;;
8435;SDS011;4255;48.730;9.156;2023-06-22T09:02:08;9.17;;;6.60;;
8435;SDS011;4255;48.730;9.156;2023-06-22T09:04:34;9.80;;;6.43;;
8435;SDS011;4255;48.730;9.156;2023-06-22T09:07:03;11.33;;;7.50;;
8435;SDS011;4255;48.730;9.156;2023-06-22T09:09:29;6.63;;;6.13;;
8435;SDS011;4255;48.730;9.156;2023-06-22T09:11:55;13.67;;;6.43;;
8435;SDS011;4255;48.730;9.156;2023-06-22T09:14:20;15.50;;;7.27;;
8435;SDS011;4255;48.730;9.156;2023-06-22T09:16:46;16.57;;;9.00;;
8435;SDS011;4255;48.730;9.156;2023-06-22T09:19:12;12.00;;;6.37;;
8435;SDS011;4255;48.730;9.156;2023-06-22T09:21:37;11.13;;;6.23;;
8435;SDS011;4255;48.730;9.156;2023-06-22T09:24:03;14.10;;;8.00;;
8435;SDS011;4255;48.730;9.156;2023-06-22T09:26:29;9.37;;;6.93;;
8435;SDS011;4255;48.730;9.156;2023-06-22T09:28:55;9.47;;;6.80;;
8435;SDS011;4255;48.730;9.156;2023-06-22T09:31:20;14.77;;;6.77;;
8435;SDS011;4255;48.730;9.156;2023-06-22T09:33:53;16.47;;;6.80;;
8435;SDS011;4255;48.730;9.156;2023-06-22T09:36:22;9.83;;;6.50;;
8435;SDS011;4255;48.730;9.156;2023-06-22T09:38:48;10.90;;;6.90;;
8435;SDS011;4255;48.730;9.156;2023-06-22T09:41:23;8.40;;;6.47;;
8435;SDS011;4255;48.730;9.156;2023-06-22T09:43:49;11.77;;;7.00;;
8435;SDS011;4255;48.730;9.156;2023-06-22T09:46:15;8.43;;;6.80;;
8435;SDS011;4255;48.730;9.156;2023-06-22T09:48:41;14.93;;;6.90;;
8435;SDS011;4255;48.730;9.156;2023-06-22T09:51:06;8.63;;;6.57;;
8435;SDS011;4255;48.730;9.156;2023-06-22T09:53:32;10.47;;;6.20;;
8435;SDS011;4255;48.730;9.156;2023-06-22T09:55:59;7.30;;;6.50;;
8435;SDS011;4255;48.730;9.156;2023-06-22T09:58:26;8.77;;;6.83;;
8435;SDS011;4255;48.730;9.156;2023-06-22T10:00:51;11.40;;;7.50;;
8435;SDS011;4255;48.730;9.156;2023-06-22T10:03:19;9.27;;;6.90;;
8435;SDS011;4255;48.730;9.156;2023-06-22T10:05:45;9.50;;;6.63;;
8435;SDS011;4255;48.730;9.156;2023-06-22T10:08:10;8.63;;;5.87;;
8435;SDS011;4255;48.730;9.156;2023-06-22T10:10:36;8.83;;;7.00;;
8435;SDS011;4255;48.730;9.156;2023-06-22T10:13:08;16.47;;;8.03;;
8435;SDS011;4255;48.730;9.156;2023-06-22T10:15:35;15.97;;;6.83;;
8435;SDS011;4255;48.730;9.156;2023-06-22T10:18:01;12.53;;;6.90;;
8435;SDS011;4255;48.730;9.156;2023-06-22T10:20:27;9.90;;;6.87;;
8435;SDS011;4255;48.730;9.156;2023-06-22T10:22:53;11.00;;;7.13;;
8435;SDS011;4255;48.730;9.156;2023-06-22T10:25:18;16.23;;;7.50;;
8435;SDS011;4255;48.730;9.156;2023-06-22T10:27:44;14.40;;;7.23;;
8435;SDS011;4255;48.730;9.156;2023-06-22T10:30:10;11.43;;;6.83;;
8435;SDS011;4255;48.730;9.156;2023-06-22T10:32:38;8.83;;;6.67;;
8435;SDS011;4255;48.730;9.156;2023-06-22T10:35:04;10.10;;;8.13;;
8435;SDS011;4255;48.730;9.156;2023-06-22T10:37:30;9.70;;;6.47;;
8435;SDS011;4255;48.730;9.156;2023-06-22T10:39:56;15.67;;;7.43;;
8435;SDS011;4255;48.730;9.156;2023-06-22T10:42:21;8.70;;;5.97;;
8435;SDS011;4255;48.730;9.156;2023-06-22T10:44:47;13.37;;;7.90;;
8435;SDS011;4255;48.730;9.156;2023-06-22T10:47:13;8.97;;;6.90;;
8435;SDS011;4255;48.730;9.156;2023-06-22T10:49:39;10.17;;;6.67;;
8435;SDS011;4255;48.730;9.156;2023-06-22T10:52:08;12.53;;;6.63;;
8435;SDS011;4255;48.730;9.156;2023-06-22T10:54:37;9.87;;;5.73;;
8435;SDS011;4255;48.730;9.156;2023-06-22T10:57:03;8.97;;;6.50;;
8435;SDS011;4255;48.730;9.156;2023-06-22T10:59:29;9.47;;;7.03;;
8435;SDS011;4255;48.730;9.156;2023-06-22T11:01:55;14.63;;;6.60;;
8435;SDS011;4255;48.730;9.156;2023-06-22T11:04:21;11.43;;;7.23;;
8435;SDS011;4255;48.730;9.156;2023-06-22T11:06:47;13.43;;;7.80;;
8435;SDS011;4255;48.730;9.156;2023-06-22T11:09:14;10.50;;;7.23;;
8435;SDS011;4255;48.730;9.156;2023-06-22T11:11:44;14.37;;;7.67;;
8435;SDS011;4255;48.730;9.156;2023-06-22T11:14:10;17.00;;;6.67;;
8435;SDS011;4255;48.730;9.156;2023-06-22T11:16:35;11.30;;;6.60;;
8435;SDS011;4255;48.730;9.156;2023-06-22T11:19:01;14.47;;;6.90;;
8435;SDS011;4255;48.730;9.156;2023-06-22T11:21:28;12.60;;;7.10;;
8435;SDS011;4255;48.730;9.156;2023-06-22T11:23:53;13.33;;;6.43;;
8435;SDS011;4255;48.730;9.156;2023-06-22T11:26:19;15.67;;;7.70;;
8435;SDS011;4255;48.730;9.156;2023-06-22T11:28:46;8.47;;;6.70;;
8435;SDS011;4255;48.730;9.156;2023-06-22T11:31:11;11.73;;;7.50;;
8435;SDS011;4255;48.730;9.156;2023-06-22T11:33:37;11.33;;;7.07;;
8435;SDS011;4255;48.730;9.156;2023-06-22T11:36:03;9.10;;;7.03;;
8435;SDS011;4255;48.730;9.156;2023-06-22T11:38:28;9.17;;;6.20;;
8435;SDS011;4255;48.730;9.156;2023-06-22T11:40:55;14.17;;;7.50;;
8435;SDS011;4255;48.730;9.156;2023-06-22T11:43:22;10.17;;;6.80;;
8435;SDS011;4255;48.730;9.156;2023-06-22T11:45:48;17.40;;;7.13;;
8435;SDS011;4255;48.730;9.156;2023-06-22T11:48:14;9.97;;;7.00;;
8435;SDS011;4255;48.730;9.156;2023-06-22T11:50:39;11.83;;;6.97;;
8435;SDS011;4255;48.730;9.156;2023-06-22T11:53:05;12.73;;;6.97;;
8435;SDS011;4255;48.730;9.156;2023-06-22T11:55:30;14.80;;;7.67;;
8435;SDS011;4255;48.730;9.156;2023-06-22T11:57:56;15.00;;;7.77;;
8435;SDS011;4255;48.730;9.156;2023-06-22T12:00:25;7.00;;;6.27;;
8435;SDS011;4255;48.730;9.156;2023-06-22T12:02:51;17.33;;;6.80;;
8435;SDS011;4255;48.730;9.156;2023-06-22T12:05:18;15.30;;;7.07;;
8435;SDS011;4255;48.730;9.156;2023-06-22T12:07:45;8.60;;;6.77;;
8435;SDS011;4255;48.730;9.156;2023-06-22T12:10:11;16.40;;;7.30;;
8435;SDS011;4255;48.730;9.156;2023-06-22T12:12:37;12.43;;;7.20;;
8435;SDS011;4255;48.730;9.156;2023-06-22T12:15:02;14.97;;;7.30;;
8435;SDS011;4255;48.730;9.156;2023-06-22T12:17:29;18.57;;;7.97;;
8435;SDS011;4255;48.730;9.156;2023-06-22T12:19:55;10.97;;;7.37;;
8435;SDS011;4255;48.730;9.156;2023-06-22T12:22:21;8.93;;;7.03;;
8435;SDS011;4255;48.730;9.156;2023-06-22T12:24:46;19.27;;;6.80;;
8435;SDS011;4255;48.730;9.156;2023-06-22T12:27:12;18.60;;;7.43;;
8435;SDS011;4255;48.730;9.156;2023-06-22T12:29:37;13.57;;;7.60;;
8435;SDS011;4255;48.730;9.156;2023-06-22T12:32:03;13.10;;;6.50;;
8435;SDS011;4255;48.730;9.156;2023-06-22T12:34:29;15.47;;;9.33;;
8435;SDS011;4255;48.730;9.156;2023-06-22T12:36:55;13.10;;;7.20;;
8435;SDS011;4255;48.730;9.156;2023-06-22T12:39:20;20.27;;;7.40;;
8435;SDS011;4255;48.730;9.156;2023-06-22T12:41:46;15.80;;;6.50;;
8435;SDS011;4255;48.730;9.156;2023-06-22T12:44:11;12.90;;;7.80;;
8435;SDS011;4255;48.730;9.156;2023-06-22T12:46:37;8.97;;;7.17;;
8435;SDS011;4255;48.730;9.156;2023-06-22T12:49:03;11.80;;;7.10;;
8435;SDS011;4255;48.730;9.156;2023-06-22T12:51:30;12.27;;;6.80;;
8435;SDS011;4255;48.730;9.156;2023-06-22T12:53:56;11.50;;;7.60;;
8435;SDS011;4255;48.730;9.156;2023-06-22T12:56:21;9.27;;;7.80;;
8435;SDS011;4255;48.730;9.156;2023-06-22T12:58:47;11.83;;;7.47;;
8435;SDS011;4255;48.730;9.156;2023-06-22T13:01:13;12.87;;;7.90;;
8435;SDS011;4255;48.730;9.156;2023-06-22T13:03:38;12.80;;;6.80;;
8435;SDS011;4255;48.730;9.156;2023-06-22T13:06:04;13.23;;;7.30;;
8435;SDS011;4255;48.730;9.156;2023-06-22T13:08:30;19.60;;;7.80;;
8435;SDS011;4255;48.730;9.156;2023-06-22T13:10:56;10.70;;;7.40;;
8435;SDS011;4255;48.730;9.156;2023-06-22T13:13:25;15.57;;;7.50;;
8435;SDS011;4255;48.730;9.156;2023-06-22T13:15:52;13.50;;;8.00;;
8435;SDS011;4255;48.730;9.156;2023-06-22T13:18:18;16.13;;;9.10;;
8435;SDS011;4255;48.730;9.156;2023-06-22T13:20:44;10.57;;;7.63;;
8435;SDS011;4255;48.730;9.156;2023-06-22T13:23:10;11.57;;;7.37;;
8435;SDS011;4255;48.730;9.156;2023-06-22T13:25:36;9.87;;;7.60;;
8435;SDS011;4255;48.730;9.156;2023-06-22T13:28:02;10.63;;;7.50;;
8435;SDS011;4255;48.730;9.156;2023-06-22T13:30:28;11.93;;;6.67;;
8435;SDS011;4255;48.730;9.156;2023-06-22T13:32:54;9.67;;;6.43;;
8435;SDS011;4255;48.730;9.156;2023-06-22T13:35:19;16.90;;;8.50;;
8435;SDS011;4255;48.730;9.156;2023-06-22T13:37:45;8.83;;;6.23;;
8435;SDS011;4255;48.730;9.156;2023-06-22T13:40:11;14.37;;;7.20;;
8435;SDS011;4255;48.730;9.156;2023-06-22T13:42:36;16.73;;;7.60;;
8435;SDS011;4255;48.730;9.156;2023-06-22T13:45:02;10.00;;;6.53;;
8435;SDS011;4255;48.730;9.156;2023-06-22T13:47:29;13.80;;;6.67;;
8435;SDS011;4255;48.730;9.156;2023-06-22T13:49:55;13.23;;;6.27;;
8435;SDS011;4255;48.730;9.156;2023-06-22T13:52:22;15.40;;;6.57;;
8435;SDS011;4255;48.730;9.156;2023-06-22T13:54:48;11.93;;;6.63;;
8435;SDS011;4255;48.730;9.156;2023-06-22T13:57:14;11.10;;;6.67;;
8435;SDS011;4255;48.730;9.156;2023-06-22T13:59:40;10.30;;;6.90;;
8435;SDS011;4255;48.730;9.156;2023-06-22T14:02:05;17.20;;;6.20;;
8435;SDS011;4255;48.730;9.156;2023-06-22T14:04:31;15.23;;;6.57;;
8435;SDS011;4255;48.730;9.156;2023-06-22T14:06:57;16.00;;;7.03;;
8435;SDS011;4255;48.730;9.156;2023-06-22T14:09:23;12.50;;;6.63;;
8435;SDS011;4255;48.730;9.156;2023-06-22T14:11:48;19.33;;;7.20;;
8435;SDS011;4255;48.730;9.156;2023-06-22T14:14:14;11.23;;;7.20;;
8435;SDS011;4255;48.730;9.156;2023-06-22T14:16:39;11.17;;;6.90;;
8435;SDS011;4255;48.730;9.156;2023-06-22T14:19:05;15.17;;;6.93;;
8435;SDS011;4255;48.730;9.156;2023-06-22T14:21:30;9.97;;;6.73;;
8435;SDS011;4255;48.730;9.156;2023-06-22T14:23:56;13.17;;;6.60;;
8435;SDS011;4255;48.730;9.156;2023-06-22T14:26:22;11.93;;;6.73;;
8435;SDS011;4255;48.730;9.156;2023-06-22T14:28:48;11.77;;;6.10;;
8435;SDS011;4255;48.730;9.156;2023-06-22T14:31:16;22.17;;;8.00;;
8435;SDS011;4255;48.730;9.156;2023-06-22T14:33:44;8.00;;;5.50;;
8435;SDS011;4255;48.730;9.156;2023-06-22T14:36:11;14.67;;;6.53;;
8435;SDS011;4255;48.730;9.156;2023-06-22T14:38:37;16.20;;;5.53;;
8435;SDS011;4255;48.730;9.156;2023-06-22T14:41:03;10.00;;;5.70;;
8435;SDS011;4255;48.730;9.156;2023-06-22T14:43:28;13.70;;;5.97;;
8435;SDS011;4255;48.730;9.156;2023-06-22T14:45:54;17.63;;;4.90;;
8435;SDS011;4255;48.730;9.156;2023-06-22T14:48:19;15.00;;;6.30;;
8435;SDS011;4255;48.730;9.156;2023-06-22T14:50:45;12.30;;;4.80;;
8435;SDS011;4255;48.730;9.156;2023-06-22T14:53:11;7.53;;;4.27;;
8435;SDS011;4255;48.730;9.156;2023-06-22T14:55:36;8.33;;;4.23;;
8435;SDS011;4255;48.730;9.156;2023-06-22T14:58:02;13.00;;;3.73;;
8435;SDS011;4255;48.730;9.156;2023-06-22T15:00:27;10.40;;;4.20;;
8435;SDS011;4255;48.730;9.156;2023-06-22T15:02:53;6.70;;;4.73;;
8435;SDS011;4255;48.730;9.156;2023-06-22T15:05:18;9.50;;;3.50;;
8435;SDS011;4255;48.730;9.156;2023-06-22T15:07:44;7.90;;;4.27;;
8435;SDS011;4255;48.730;9.156;2023-06-22T15:10:10;8.73;;;3.93;;
8435;SDS011;4255;48.730;9.156;2023-06-22T15:12:35;10.20;;;4.10;;